This is the latest recevied weather packets stored in our database for station/object DB5ZQ. If no packets are shown the sender has not sent any weather packets the latest 10 day(s).
| Time | Temp. | Humidity | Pressure | Rain* | Wind** | Luminosity | Snow |
|---|---|---|---|---|---|---|---|
| 1787407794 | 23.89° C | 44% | 1015.6 hPa | 0 mm | - | - | - |
| 1787407494 | 23.89° C | 44% | 1015.5 hPa | 0 mm | - | - | - |
| 1787407193 | 23.89° C | 43% | 1015.5 hPa | 0 mm | - | - | - |
| 1787406893 | 24.44° C | 43% | 1015.4 hPa | 0 mm | - | - | - |
| 1787406593 | 24.44° C | 43% | 1015.4 hPa | 0 mm | - | - | - |
| 1787406293 | 23.89° C | 45% | 1015.3 hPa | 0 mm | - | - | - |
| 1787405992 | 23.89° C | 46% | 1015.3 hPa | 0 mm | - | - | - |
| 1787405692 | 23.89° C | 47% | 1015.4 hPa | 0 mm | - | - | - |
| 1787405392 | 23.89° C | 47% | 1015.3 hPa | 0 mm | - | - | - |
| 1787405092 | 23.89° C | 48% | 1015.3 hPa | 0 mm | - | - | - |
| 1787404791 | 23.33° C | 47% | 1015.2 hPa | 0 mm | - | - | - |
| 1787404491 | 23.89° C | 47% | 1015.2 hPa | 0 mm | - | - | - |
| 1787404190 | 23.89° C | 47% | 1015.2 hPa | 0 mm | - | - | - |
| 1787403890 | 23.89° C | 49% | 1015.3 hPa | 0 mm | - | - | - |
| 1787403590 | 23.89° C | 49% | 1015.3 hPa | 0 mm | - | - | - |
| 1787403290 | 23.33° C | 53% | 1015.3 hPa | 0 mm | - | - | - |
| 1787402989 | 22.22° C | 56% | 1015.3 hPa | 0 mm | - | - | - |
| 1787402689 | 22.22° C | 56% | 1015.4 hPa | 0 mm | - | - | - |
| 1787402389 | 21.67° C | 58% | 1015.4 hPa | 0 mm | - | - | - |
| 1787402088 | 21.67° C | 59% | 1015.4 hPa | 0 mm | - | - | - |
| 1787401788 | 21.67° C | 60% | 1015.3 hPa | 0 mm | - | - | - |
| 1787401488 | 21.11° C | 63% | 1015.3 hPa | 0 mm | - | - | - |
| 1787401188 | 20.56° C | 63% | 1015.3 hPa | 0 mm | - | - | - |
| 1787400887 | 20.56° C | 63% | 1015.2 hPa | 0 mm | - | - | - |
| 1787400587 | 20° C | 63% | 1015.2 hPa | 0 mm | - | - | - |
* Rain latest hour (hover to see other rain measurements)
** Current wind speed in m/s (hover to see current wind gust speed)